sensor_id;sensor_type;location;lat;lon;timestamp;P1;durP1;ratioP1;P2;durP2;ratioP2
29876;SDS011;16750;49.002;9.204;2022-08-19T00:00:02;11.05;;;9.95;;
29876;SDS011;16750;49.002;9.204;2022-08-19T00:02:29;12.93;;;10.43;;
29876;SDS011;16750;49.002;9.204;2022-08-19T00:04:54;12.68;;;10.52;;
29876;SDS011;16750;49.002;9.204;2022-08-19T00:07:20;11.95;;;10.63;;
29876;SDS011;16750;49.002;9.204;2022-08-19T00:09:46;12.52;;;10.20;;
29876;SDS011;16750;49.002;9.204;2022-08-19T00:12:11;13.02;;;10.70;;
29876;SDS011;16750;49.002;9.204;2022-08-19T00:14:38;12.10;;;10.90;;
29876;SDS011;16750;49.002;9.204;2022-08-19T00:17:06;13.93;;;11.88;;
29876;SDS011;16750;49.002;9.204;2022-08-19T00:19:32;12.45;;;10.23;;
29876;SDS011;16750;49.002;9.204;2022-08-19T00:21:58;12.88;;;10.65;;
29876;SDS011;16750;49.002;9.204;2022-08-19T00:24:24;15.45;;;11.95;;
29876;SDS011;16750;49.002;9.204;2022-08-19T00:26:50;13.32;;;11.18;;
29876;SDS011;16750;49.002;9.204;2022-08-19T00:29:17;15.90;;;11.25;;
29876;SDS011;16750;49.002;9.204;2022-08-19T00:31:45;13.98;;;11.90;;
29876;SDS011;16750;49.002;9.204;2022-08-19T00:34:11;13.60;;;11.50;;
29876;SDS011;16750;49.002;9.204;2022-08-19T00:36:37;15.13;;;11.13;;
29876;SDS011;16750;49.002;9.204;2022-08-19T00:39:04;14.32;;;11.90;;
29876;SDS011;16750;49.002;9.204;2022-08-19T00:41:30;12.90;;;10.90;;
29876;SDS011;16750;49.002;9.204;2022-08-19T00:44:10;12.60;;;11.30;;
29876;SDS011;16750;49.002;9.204;2022-08-19T00:46:38;13.23;;;11.82;;
29876;SDS011;16750;49.002;9.204;2022-08-19T00:49:40;13.82;;;11.18;;
29876;SDS011;16750;49.002;9.204;2022-08-19T00:52:07;14.60;;;11.60;;
29876;SDS011;16750;49.002;9.204;2022-08-19T00:54:35;13.25;;;11.50;;
29876;SDS011;16750;49.002;9.204;2022-08-19T00:57:03;13.75;;;11.05;;
29876;SDS011;16750;49.002;9.204;2022-08-19T00:59:31;13.48;;;11.43;;
29876;SDS011;16750;49.002;9.204;2022-08-19T01:02:00;13.15;;;11.10;;
29876;SDS011;16750;49.002;9.204;2022-08-19T01:04:26;12.13;;;10.75;;
29876;SDS011;16750;49.002;9.204;2022-08-19T01:06:52;13.40;;;10.90;;
29876;SDS011;16750;49.002;9.204;2022-08-19T01:09:17;13.73;;;10.85;;
29876;SDS011;16750;49.002;9.204;2022-08-19T01:11:42;12.70;;;11.40;;
29876;SDS011;16750;49.002;9.204;2022-08-19T01:14:10;13.48;;;11.43;;
29876;SDS011;16750;49.002;9.204;2022-08-19T01:16:36;13.63;;;11.77;;
29876;SDS011;16750;49.002;9.204;2022-08-19T01:19:07;12.52;;;11.10;;
29876;SDS011;16750;49.002;9.204;2022-08-19T01:21:59;12.85;;;11.05;;
29876;SDS011;16750;49.002;9.204;2022-08-19T01:24:28;12.43;;;11.13;;
29876;SDS011;16750;49.002;9.204;2022-08-19T01:26:54;12.30;;;11.10;;
29876;SDS011;16750;49.002;9.204;2022-08-19T01:29:19;14.02;;;12.57;;
29876;SDS011;16750;49.002;9.204;2022-08-19T01:31:45;14.73;;;11.82;;
29876;SDS011;16750;49.002;9.204;2022-08-19T01:34:10;13.88;;;12.02;;
29876;SDS011;16750;49.002;9.204;2022-08-19T01:36:37;16.52;;;11.80;;
29876;SDS011;16750;49.002;9.204;2022-08-19T01:39:17;13.25;;;11.85;;
29876;SDS011;16750;49.002;9.204;2022-08-19T01:41:48;14.07;;;11.25;;
29876;SDS011;16750;49.002;9.204;2022-08-19T01:44:13;14.43;;;12.52;;
29876;SDS011;16750;49.002;9.204;2022-08-19T01:46:39;13.55;;;12.10;;
29876;SDS011;16750;49.002;9.204;2022-08-19T01:49:07;13.82;;;12.27;;
29876;SDS011;16750;49.002;9.204;2022-08-19T01:51:33;13.93;;;12.52;;
29876;SDS011;16750;49.002;9.204;2022-08-19T01:53:58;15.13;;;12.98;;
29876;SDS011;16750;49.002;9.204;2022-08-19T01:56:24;13.20;;;11.85;;
29876;SDS011;16750;49.002;9.204;2022-08-19T01:58:54;13.48;;;12.07;;
29876;SDS011;16750;49.002;9.204;2022-08-19T02:01:23;14.38;;;12.88;;
29876;SDS011;16750;49.002;9.204;2022-08-19T02:03:49;14.43;;;12.90;;
29876;SDS011;16750;49.002;9.204;2022-08-19T02:06:14;14.45;;;12.23;;
29876;SDS011;16750;49.002;9.204;2022-08-19T02:08:42;14.82;;;12.23;;
29876;SDS011;16750;49.002;9.204;2022-08-19T02:11:10;14.32;;;12.82;;
29876;SDS011;16750;49.002;9.204;2022-08-19T02:13:51;15.38;;;13.55;;
29876;SDS011;16750;49.002;9.204;2022-08-19T02:16:18;14.60;;;12.85;;
29876;SDS011;16750;49.002;9.204;2022-08-19T02:18:44;17.27;;;13.93;;
29876;SDS011;16750;49.002;9.204;2022-08-19T02:21:10;15.15;;;12.75;;
29876;SDS011;16750;49.002;9.204;2022-08-19T02:23:36;16.15;;;14.20;;
29876;SDS011;16750;49.002;9.204;2022-08-19T02:26:01;16.67;;;13.40;;
29876;SDS011;16750;49.002;9.204;2022-08-19T02:28:27;19.05;;;14.07;;
29876;SDS011;16750;49.002;9.204;2022-08-19T02:30:52;15.13;;;13.52;;
29876;SDS011;16750;49.002;9.204;2022-08-19T02:33:18;16.33;;;13.80;;
29876;SDS011;16750;49.002;9.204;2022-08-19T02:35:44;17.30;;;15.35;;
29876;SDS011;16750;49.002;9.204;2022-08-19T02:38:10;18.58;;;14.70;;
29876;SDS011;16750;49.002;9.204;2022-08-19T02:40:51;16.05;;;12.90;;
29876;SDS011;16750;49.002;9.204;2022-08-19T02:43:20;17.88;;;15.15;;
29876;SDS011;16750;49.002;9.204;2022-08-19T02:45:46;16.60;;;14.02;;
29876;SDS011;16750;49.002;9.204;2022-08-19T02:48:14;17.45;;;14.75;;
29876;SDS011;16750;49.002;9.204;2022-08-19T02:50:44;16.88;;;14.18;;
29876;SDS011;16750;49.002;9.204;2022-08-19T02:53:10;18.55;;;15.73;;
29876;SDS011;16750;49.002;9.204;2022-08-19T02:55:35;18.50;;;15.32;;
29876;SDS011;16750;49.002;9.204;2022-08-19T02:58:06;18.95;;;15.20;;
29876;SDS011;16750;49.002;9.204;2022-08-19T03:00:32;19.20;;;16.10;;
29876;SDS011;16750;49.002;9.204;2022-08-19T03:02:57;17.80;;;15.75;;
29876;SDS011;16750;49.002;9.204;2022-08-19T03:05:25;22.92;;;16.83;;
29876;SDS011;16750;49.002;9.204;2022-08-19T03:07:52;18.45;;;15.82;;
29876;SDS011;16750;49.002;9.204;2022-08-19T03:10:17;18.58;;;15.27;;
29876;SDS011;16750;49.002;9.204;2022-08-19T03:12:43;20.38;;;16.42;;
29876;SDS011;16750;49.002;9.204;2022-08-19T03:15:08;18.48;;;15.80;;
29876;SDS011;16750;49.002;9.204;2022-08-19T03:17:34;20.98;;;16.75;;
29876;SDS011;16750;49.002;9.204;2022-08-19T03:20:00;21.92;;;17.38;;
29876;SDS011;16750;49.002;9.204;2022-08-19T03:22:25;19.17;;;15.88;;
29876;SDS011;16750;49.002;9.204;2022-08-19T03:24:51;18.17;;;15.70;;
29876;SDS011;16750;49.002;9.204;2022-08-19T03:27:16;20.00;;;14.80;;
29876;SDS011;16750;49.002;9.204;2022-08-19T03:29:42;21.05;;;17.85;;
29876;SDS011;16750;49.002;9.204;2022-08-19T03:32:08;19.98;;;16.60;;
29876;SDS011;16750;49.002;9.204;2022-08-19T03:34:35;25.00;;;18.48;;
29876;SDS011;16750;49.002;9.204;2022-08-19T03:37:04;20.38;;;17.45;;
29876;SDS011;16750;49.002;9.204;2022-08-19T03:39:35;21.25;;;17.50;;
29876;SDS011;16750;49.002;9.204;2022-08-19T03:42:02;20.58;;;17.20;;
29876;SDS011;16750;49.002;9.204;2022-08-19T03:44:28;19.80;;;16.48;;
29876;SDS011;16750;49.002;9.204;2022-08-19T03:46:56;20.50;;;17.45;;
29876;SDS011;16750;49.002;9.204;2022-08-19T03:49:24;22.67;;;17.50;;
29876;SDS011;16750;49.002;9.204;2022-08-19T03:51:52;19.83;;;16.55;;
29876;SDS011;16750;49.002;9.204;2022-08-19T03:54:18;23.13;;;18.95;;
29876;SDS011;16750;49.002;9.204;2022-08-19T03:56:48;22.52;;;17.92;;
29876;SDS011;16750;49.002;9.204;2022-08-19T03:59:20;21.05;;;17.30;;
29876;SDS011;16750;49.002;9.204;2022-08-19T04:01:51;20.90;;;17.90;;
29876;SDS011;16750;49.002;9.204;2022-08-19T04:04:18;23.08;;;18.77;;
29876;SDS011;16750;49.002;9.204;2022-08-19T04:06:44;22.60;;;17.95;;
29876;SDS011;16750;49.002;9.204;2022-08-19T04:09:10;22.83;;;18.75;;
29876;SDS011;16750;49.002;9.204;2022-08-19T04:11:37;20.50;;;17.08;;
29876;SDS011;16750;49.002;9.204;2022-08-19T04:14:09;21.63;;;18.23;;
29876;SDS011;16750;49.002;9.204;2022-08-19T04:16:36;22.88;;;17.63;;
29876;SDS011;16750;49.002;9.204;2022-08-19T04:19:02;19.67;;;16.67;;
29876;SDS011;16750;49.002;9.204;2022-08-19T04:21:29;20.35;;;18.20;;
29876;SDS011;16750;49.002;9.204;2022-08-19T04:23:54;22.52;;;18.98;;
29876;SDS011;16750;49.002;9.204;2022-08-19T04:26:22;23.70;;;19.23;;
29876;SDS011;16750;49.002;9.204;2022-08-19T04:28:52;21.60;;;18.33;;
29876;SDS011;16750;49.002;9.204;2022-08-19T04:31:19;21.52;;;18.67;;
29876;SDS011;16750;49.002;9.204;2022-08-19T04:33:47;22.65;;;18.90;;
29876;SDS011;16750;49.002;9.204;2022-08-19T04:36:20;21.88;;;18.75;;
29876;SDS011;16750;49.002;9.204;2022-08-19T04:38:47;23.23;;;19.77;;
29876;SDS011;16750;49.002;9.204;2022-08-19T04:41:14;22.33;;;19.00;;
29876;SDS011;16750;49.002;9.204;2022-08-19T04:43:59;22.60;;;19.42;;
29876;SDS011;16750;49.002;9.204;2022-08-19T04:46:25;22.77;;;19.95;;
29876;SDS011;16750;49.002;9.204;2022-08-19T04:48:50;22.35;;;19.33;;
29876;SDS011;16750;49.002;9.204;2022-08-19T04:51:16;23.40;;;20.35;;
29876;SDS011;16750;49.002;9.204;2022-08-19T04:53:42;23.13;;;20.55;;
29876;SDS011;16750;49.002;9.204;2022-08-19T04:56:08;25.40;;;20.10;;
29876;SDS011;16750;49.002;9.204;2022-08-19T04:58:38;23.75;;;20.80;;
29876;SDS011;16750;49.002;9.204;2022-08-19T05:01:07;23.00;;;20.52;;
29876;SDS011;16750;49.002;9.204;2022-08-19T05:03:42;21.30;;;18.75;;
29876;SDS011;16750;49.002;9.204;2022-08-19T05:06:08;22.85;;;19.80;;
29876;SDS011;16750;49.002;9.204;2022-08-19T05:08:36;22.80;;;19.77;;
29876;SDS011;16750;49.002;9.204;2022-08-19T05:11:12;23.90;;;20.58;;
29876;SDS011;16750;49.002;9.204;2022-08-19T05:13:41;21.65;;;19.30;;
29876;SDS011;16750;49.002;9.204;2022-08-19T05:16:08;21.90;;;19.40;;
29876;SDS011;16750;49.002;9.204;2022-08-19T05:18:35;21.30;;;18.88;;
29876;SDS011;16750;49.002;9.204;2022-08-19T05:21:19;21.42;;;18.50;;
29876;SDS011;16750;49.002;9.204;2022-08-19T05:24:04;23.15;;;18.88;;
29876;SDS011;16750;49.002;9.204;2022-08-19T05:26:37;21.00;;;18.70;;
29876;SDS011;16750;49.002;9.204;2022-08-19T05:29:04;22.08;;;19.65;;
29876;SDS011;16750;49.002;9.204;2022-08-19T05:31:32;19.83;;;17.42;;
29876;SDS011;16750;49.002;9.204;2022-08-19T05:33:58;20.70;;;18.52;;
29876;SDS011;16750;49.002;9.204;2022-08-19T05:36:26;19.98;;;16.63;;
29876;SDS011;16750;49.002;9.204;2022-08-19T05:38:54;22.95;;;18.35;;
29876;SDS011;16750;49.002;9.204;2022-08-19T05:41:20;20.73;;;18.52;;
29876;SDS011;16750;49.002;9.204;2022-08-19T05:43:54;22.05;;;19.02;;
29876;SDS011;16750;49.002;9.204;2022-08-19T05:46:21;21.27;;;19.00;;
29876;SDS011;16750;49.002;9.204;2022-08-19T05:48:47;22.40;;;20.00;;
29876;SDS011;16750;49.002;9.204;2022-08-19T05:51:13;21.77;;;19.35;;
29876;SDS011;16750;49.002;9.204;2022-08-19T05:53:41;24.20;;;20.00;;
29876;SDS011;16750;49.002;9.204;2022-08-19T05:56:08;22.55;;;18.30;;
29876;SDS011;16750;49.002;9.204;2022-08-19T05:58:36;20.52;;;18.33;;
29876;SDS011;16750;49.002;9.204;2022-08-19T06:01:03;22.23;;;19.30;;
29876;SDS011;16750;49.002;9.204;2022-08-19T06:03:38;21.83;;;18.92;;
29876;SDS011;16750;49.002;9.204;2022-08-19T06:06:05;21.63;;;17.95;;
29876;SDS011;16750;49.002;9.204;2022-08-19T06:08:33;21.10;;;18.08;;
29876;SDS011;16750;49.002;9.204;2022-08-19T06:11:11;21.05;;;17.35;;
29876;SDS011;16750;49.002;9.204;2022-08-19T06:13:49;21.92;;;19.55;;
29876;SDS011;16750;49.002;9.204;2022-08-19T06:16:20;19.77;;;17.67;;
29876;SDS011;16750;49.002;9.204;2022-08-19T06:18:50;20.63;;;18.52;;
29876;SDS011;16750;49.002;9.204;2022-08-19T06:21:18;19.98;;;17.88;;
29876;SDS011;16750;49.002;9.204;2022-08-19T06:23:45;20.52;;;17.70;;
29876;SDS011;16750;49.002;9.204;2022-08-19T06:26:12;20.55;;;18.33;;
29876;SDS011;16750;49.002;9.204;2022-08-19T06:28:39;22.38;;;19.98;;
29876;SDS011;16750;49.002;9.204;2022-08-19T06:31:18;20.60;;;18.40;;
29876;SDS011;16750;49.002;9.204;2022-08-19T06:33:46;24.85;;;19.30;;
29876;SDS011;16750;49.002;9.204;2022-08-19T06:36:21;21.35;;;19.05;;
29876;SDS011;16750;49.002;9.204;2022-08-19T06:38:56;20.05;;;17.85;;
29876;SDS011;16750;49.002;9.204;2022-08-19T06:41:34;23.08;;;19.73;;
29876;SDS011;16750;49.002;9.204;2022-08-19T06:44:06;23.03;;;17.53;;
29876;SDS011;16750;49.002;9.204;2022-08-19T06:46:33;19.42;;;17.23;;
29876;SDS011;16750;49.002;9.204;2022-08-19T06:48:59;22.15;;;17.73;;
29876;SDS011;16750;49.002;9.204;2022-08-19T06:51:25;21.05;;;17.85;;
29876;SDS011;16750;49.002;9.204;2022-08-19T06:53:51;20.83;;;18.15;;
29876;SDS011;16750;49.002;9.204;2022-08-19T06:56:20;21.08;;;17.42;;
29876;SDS011;16750;49.002;9.204;2022-08-19T06:58:58;21.67;;;17.55;;
29876;SDS011;16750;49.002;9.204;2022-08-19T07:01:36;20.35;;;18.15;;
29876;SDS011;16750;49.002;9.204;2022-08-19T07:04:12;21.38;;;17.95;;
29876;SDS011;16750;49.002;9.204;2022-08-19T07:06:44;19.58;;;17.08;;
29876;SDS011;16750;49.002;9.204;2022-08-19T07:09:11;18.77;;;16.75;;
29876;SDS011;16750;49.002;9.204;2022-08-19T07:11:38;21.80;;;17.38;;
29876;SDS011;16750;49.002;9.204;2022-08-19T07:14:04;21.35;;;17.98;;
29876;SDS011;16750;49.002;9.204;2022-08-19T07:16:30;23.15;;;17.02;;
29876;SDS011;16750;49.002;9.204;2022-08-19T07:18:55;21.15;;;16.88;;
29876;SDS011;16750;49.002;9.204;2022-08-19T07:21:23;18.10;;;16.20;;
29876;SDS011;16750;49.002;9.204;2022-08-19T07:23:53;17.38;;;15.52;;
29876;SDS011;16750;49.002;9.204;2022-08-19T07:26:20;21.50;;;17.95;;
29876;SDS011;16750;49.002;9.204;2022-08-19T07:28:54;20.13;;;17.10;;
29876;SDS011;16750;49.002;9.204;2022-08-19T07:31:21;20.00;;;16.52;;
29876;SDS011;16750;49.002;9.204;2022-08-19T07:33:50;18.75;;;16.75;;
29876;SDS011;16750;49.002;9.204;2022-08-19T07:36:18;18.73;;;16.38;;
29876;SDS011;16750;49.002;9.204;2022-08-19T07:38:46;18.77;;;15.80;;
29876;SDS011;16750;49.002;9.204;2022-08-19T07:41:15;19.20;;;15.93;;
29876;SDS011;16750;49.002;9.204;2022-08-19T07:43:43;19.25;;;16.95;;
29876;SDS011;16750;49.002;9.204;2022-08-19T07:46:09;20.83;;;16.67;;
29876;SDS011;16750;49.002;9.204;2022-08-19T07:48:36;18.05;;;15.55;;
29876;SDS011;16750;49.002;9.204;2022-08-19T07:51:02;19.20;;;15.75;;
29876;SDS011;16750;49.002;9.204;2022-08-19T07:53:31;17.88;;;16.00;;
29876;SDS011;16750;49.002;9.204;2022-08-19T07:55:57;19.10;;;14.30;;
29876;SDS011;16750;49.002;9.204;2022-08-19T07:58:33;19.98;;;14.23;;
29876;SDS011;16750;49.002;9.204;2022-08-19T08:01:00;17.73;;;15.02;;
29876;SDS011;16750;49.002;9.204;2022-08-19T08:03:27;17.80;;;14.65;;
29876;SDS011;16750;49.002;9.204;2022-08-19T08:06:12;18.20;;;14.40;;
29876;SDS011;16750;49.002;9.204;2022-08-19T08:08:58;17.27;;;13.57;;
29876;SDS011;16750;49.002;9.204;2022-08-19T08:11:40;17.50;;;14.40;;
29876;SDS011;16750;49.002;9.204;2022-08-19T08:14:14;17.35;;;13.82;;
29876;SDS011;16750;49.002;9.204;2022-08-19T08:16:44;17.88;;;14.93;;
29876;SDS011;16750;49.002;9.204;2022-08-19T08:19:10;16.75;;;13.70;;
29876;SDS011;16750;49.002;9.204;2022-08-19T08:21:36;18.80;;;14.82;;
29876;SDS011;16750;49.002;9.204;2022-08-19T08:24:02;15.20;;;13.43;;
29876;SDS011;16750;49.002;9.204;2022-08-19T08:26:28;17.45;;;12.43;;
29876;SDS011;16750;49.002;9.204;2022-08-19T08:28:53;20.60;;;13.60;;
29876;SDS011;16750;49.002;9.204;2022-08-19T08:31:19;16.35;;;12.80;;
29876;SDS011;16750;49.002;9.204;2022-08-19T08:33:45;15.85;;;13.85;;
29876;SDS011;16750;49.002;9.204;2022-08-19T08:36:12;16.52;;;13.73;;
29876;SDS011;16750;49.002;9.204;2022-08-19T08:38:39;15.10;;;12.90;;
29876;SDS011;16750;49.002;9.204;2022-08-19T08:41:09;14.15;;;12.68;;
29876;SDS011;16750;49.002;9.204;2022-08-19T08:43:47;18.17;;;13.32;;
29876;SDS011;16750;49.002;9.204;2022-08-19T08:46:18;17.02;;;13.05;;
29876;SDS011;16750;49.002;9.204;2022-08-19T08:51:40;14.68;;;13.05;;
29876;SDS011;16750;49.002;9.204;2022-08-19T08:54:11;16.95;;;12.85;;
29876;SDS011;16750;49.002;9.204;2022-08-19T08:56:39;16.38;;;12.93;;
29876;SDS011;16750;49.002;9.204;2022-08-19T08:59:10;19.75;;;12.90;;
29876;SDS011;16750;49.002;9.204;2022-08-19T09:01:49;16.30;;;11.45;;
29876;SDS011;16750;49.002;9.204;2022-08-19T09:04:14;16.27;;;11.43;;
29876;SDS011;16750;49.002;9.204;2022-08-19T09:09:44;12.55;;;9.95;;
29876;SDS011;16750;49.002;9.204;2022-08-19T09:12:31;15.82;;;11.00;;
29876;SDS011;16750;49.002;9.204;2022-08-19T09:15:09;12.02;;;10.15;;
29876;SDS011;16750;49.002;9.204;2022-08-19T09:17:37;13.48;;;10.65;;
29876;SDS011;16750;49.002;9.204;2022-08-19T09:20:06;12.48;;;9.77;;
29876;SDS011;16750;49.002;9.204;2022-08-19T09:22:43;13.25;;;9.65;;
29876;SDS011;16750;49.002;9.204;2022-08-19T09:25:10;13.13;;;10.15;;
29876;SDS011;16750;49.002;9.204;2022-08-19T09:27:37;12.13;;;9.90;;
29876;SDS011;16750;49.002;9.204;2022-08-19T09:30:05;13.02;;;10.15;;
29876;SDS011;16750;49.002;9.204;2022-08-19T09:32:32;14.95;;;9.88;;
29876;SDS011;16750;49.002;9.204;2022-08-19T09:34:58;12.45;;;9.75;;
29876;SDS011;16750;49.002;9.204;2022-08-19T09:37:25;15.10;;;9.50;;
29876;SDS011;16750;49.002;9.204;2022-08-19T09:39:51;16.63;;;10.05;;
29876;SDS011;16750;49.002;9.204;2022-08-19T09:42:17;10.52;;;8.95;;
29876;SDS011;16750;49.002;9.204;2022-08-19T09:44:43;13.88;;;9.48;;
29876;SDS011;16750;49.002;9.204;2022-08-19T09:47:09;10.98;;;9.10;;
29876;SDS011;16750;49.002;9.204;2022-08-19T09:49:36;11.05;;;8.23;;
29876;SDS011;16750;49.002;9.204;2022-08-19T09:52:03;13.23;;;8.60;;
29876;SDS011;16750;49.002;9.204;2022-08-19T09:54:29;12.48;;;8.43;;
29876;SDS011;16750;49.002;9.204;2022-08-19T09:56:54;10.45;;;7.68;;
29876;SDS011;16750;49.002;9.204;2022-08-19T09:59:22;10.57;;;7.93;;
29876;SDS011;16750;49.002;9.204;2022-08-19T10:01:48;8.40;;;6.80;;
29876;SDS011;16750;49.002;9.204;2022-08-19T10:04:13;10.18;;;7.72;;
29876;SDS011;16750;49.002;9.204;2022-08-19T10:06:40;9.20;;;7.18;;
29876;SDS011;16750;49.002;9.204;2022-08-19T10:09:07;10.00;;;7.45;;
29876;SDS011;16750;49.002;9.204;2022-08-19T10:11:34;12.43;;;7.50;;
29876;SDS011;16750;49.002;9.204;2022-08-19T10:14:02;10.10;;;7.43;;
29876;SDS011;16750;49.002;9.204;2022-08-19T10:16:30;9.55;;;7.10;;
29876;SDS011;16750;49.002;9.204;2022-08-19T10:18:56;10.52;;;6.82;;
29876;SDS011;16750;49.002;9.204;2022-08-19T10:21:24;8.80;;;6.90;;
29876;SDS011;16750;49.002;9.204;2022-08-19T10:23:52;8.90;;;6.38;;
29876;SDS011;16750;49.002;9.204;2022-08-19T10:26:23;9.02;;;6.30;;
29876;SDS011;16750;49.002;9.204;2022-08-19T10:28:50;9.85;;;6.45;;
29876;SDS011;16750;49.002;9.204;2022-08-19T10:31:23;10.38;;;6.45;;
29876;SDS011;16750;49.002;9.204;2022-08-19T10:33:51;9.13;;;5.90;;
29876;SDS011;16750;49.002;9.204;2022-08-19T10:36:27;8.20;;;5.60;;
29876;SDS011;16750;49.002;9.204;2022-08-19T10:38:55;6.90;;;4.90;;
29876;SDS011;16750;49.002;9.204;2022-08-19T10:41:28;7.25;;;5.30;;
29876;SDS011;16750;49.002;9.204;2022-08-19T10:43:56;8.90;;;4.97;;
29876;SDS011;16750;49.002;9.204;2022-08-19T10:46:24;6.38;;;5.03;;
29876;SDS011;16750;49.002;9.204;2022-08-19T10:48:51;9.13;;;5.07;;
29876;SDS011;16750;49.002;9.204;2022-08-19T10:51:18;7.50;;;5.10;;
29876;SDS011;16750;49.002;9.204;2022-08-19T10:54:02;7.53;;;4.53;;
29876;SDS011;16750;49.002;9.204;2022-08-19T10:56:28;8.20;;;4.72;;
29876;SDS011;16750;49.002;9.204;2022-08-19T10:59:12;7.00;;;4.38;;
29876;SDS011;16750;49.002;9.204;2022-08-19T11:01:39;6.90;;;4.53;;
29876;SDS011;16750;49.002;9.204;2022-08-19T11:04:07;7.93;;;4.55;;
29876;SDS011;16750;49.002;9.204;2022-08-19T11:06:39;6.10;;;4.38;;
29876;SDS011;16750;49.002;9.204;2022-08-19T11:09:07;8.13;;;5.05;;
29876;SDS011;16750;49.002;9.204;2022-08-19T11:11:33;8.35;;;5.00;;
29876;SDS011;16750;49.002;9.204;2022-08-19T11:14:04;6.72;;;4.80;;
29876;SDS011;16750;49.002;9.204;2022-08-19T11:16:30;7.63;;;5.20;;
29876;SDS011;16750;49.002;9.204;2022-08-19T11:18:57;7.85;;;4.43;;
29876;SDS011;16750;49.002;9.204;2022-08-19T11:21:25;9.40;;;5.03;;
29876;SDS011;16750;49.002;9.204;2022-08-19T11:23:57;6.15;;;4.70;;
29876;SDS011;16750;49.002;9.204;2022-08-19T11:26:24;5.88;;;4.60;;
29876;SDS011;16750;49.002;9.204;2022-08-19T11:28:50;7.95;;;5.20;;
29876;SDS011;16750;49.002;9.204;2022-08-19T11:31:20;6.43;;;4.53;;
29876;SDS011;16750;49.002;9.204;2022-08-19T11:33:48;8.13;;;5.20;;
29876;SDS011;16750;49.002;9.204;2022-08-19T11:36:17;7.25;;;4.60;;
29876;SDS011;16750;49.002;9.204;2022-08-19T11:38:47;5.80;;;4.28;;
29876;SDS011;16750;49.002;9.204;2022-08-19T11:41:15;8.15;;;4.97;;
29876;SDS011;16750;49.002;9.204;2022-08-19T11:43:42;6.82;;;4.50;;
29876;SDS011;16750;49.002;9.204;2022-08-19T11:46:13;6.10;;;4.45;;
29876;SDS011;16750;49.002;9.204;2022-08-19T11:48:40;7.53;;;4.82;;
29876;SDS011;16750;49.002;9.204;2022-08-19T11:51:07;10.35;;;4.90;;
29876;SDS011;16750;49.002;9.204;2022-08-19T11:53:37;7.05;;;4.75;;
29876;SDS011;16750;49.002;9.204;2022-08-19T11:56:04;7.03;;;4.45;;
29876;SDS011;16750;49.002;9.204;2022-08-19T11:58:31;7.38;;;4.78;;
29876;SDS011;16750;49.002;9.204;2022-08-19T12:00:57;7.63;;;4.75;;
29876;SDS011;16750;49.002;9.204;2022-08-19T12:03:23;7.63;;;4.90;;
29876;SDS011;16750;49.002;9.204;2022-08-19T12:05:48;6.63;;;4.50;;
29876;SDS011;16750;49.002;9.204;2022-08-19T12:08:15;7.75;;;4.20;;
29876;SDS011;16750;49.002;9.204;2022-08-19T12:10:41;8.88;;;4.28;;
29876;SDS011;16750;49.002;9.204;2022-08-19T12:13:08;8.65;;;4.82;;
29876;SDS011;16750;49.002;9.204;2022-08-19T12:15:37;7.30;;;5.03;;
29876;SDS011;16750;49.002;9.204;2022-08-19T12:18:06;7.25;;;5.10;;
29876;SDS011;16750;49.002;9.204;2022-08-19T12:20:37;7.20;;;5.47;;
29876;SDS011;16750;49.002;9.204;2022-08-19T12:23:05;7.38;;;4.93;;
29876;SDS011;16750;49.002;9.204;2022-08-19T12:25:31;8.30;;;5.55;;
29876;SDS011;16750;49.002;9.204;2022-08-19T12:27:58;6.88;;;4.90;;
29876;SDS011;16750;49.002;9.204;2022-08-19T12:30:23;7.05;;;4.55;;
29876;SDS011;16750;49.002;9.204;2022-08-19T12:32:49;6.03;;;3.97;;
29876;SDS011;16750;49.002;9.204;2022-08-19T12:35:16;13.23;;;5.03;;
29876;SDS011;16750;49.002;9.204;2022-08-19T12:37:42;10.65;;;5.38;;
29876;SDS011;16750;49.002;9.204;2022-08-19T12:40:10;8.95;;;5.65;;
29876;SDS011;16750;49.002;9.204;2022-08-19T12:42:37;9.07;;;5.35;;
29876;SDS011;16750;49.002;9.204;2022-08-19T12:45:07;10.98;;;6.15;;
29876;SDS011;16750;49.002;9.204;2022-08-19T12:47:35;8.27;;;5.68;;
29876;SDS011;16750;49.002;9.204;2022-08-19T12:50:00;7.60;;;6.40;;
29876;SDS011;16750;49.002;9.204;2022-08-19T12:52:26;11.40;;;6.85;;
29876;SDS011;16750;49.002;9.204;2022-08-19T12:54:53;10.48;;;6.65;;
29876;SDS011;16750;49.002;9.204;2022-08-19T12:57:19;8.70;;;7.00;;
29876;SDS011;16750;49.002;9.204;2022-08-19T12:59:45;11.30;;;7.90;;
29876;SDS011;16750;49.002;9.204;2022-08-19T13:02:10;12.85;;;7.30;;
29876;SDS011;16750;49.002;9.204;2022-08-19T13:04:36;10.32;;;6.93;;
29876;SDS011;16750;49.002;9.204;2022-08-19T13:07:05;10.00;;;6.82;;
29876;SDS011;16750;49.002;9.204;2022-08-19T13:09:31;10.13;;;7.03;;
29876;SDS011;16750;49.002;9.204;2022-08-19T13:11:56;8.70;;;6.15;;
29876;SDS011;16750;49.002;9.204;2022-08-19T13:14:22;10.80;;;7.13;;
29876;SDS011;16750;49.002;9.204;2022-08-19T13:16:48;9.32;;;7.65;;
29876;SDS011;16750;49.002;9.204;2022-08-19T13:19:13;10.00;;;7.90;;
29876;SDS011;16750;49.002;9.204;2022-08-19T13:21:38;12.57;;;7.47;;
29876;SDS011;16750;49.002;9.204;2022-08-19T13:24:04;10.57;;;7.22;;
29876;SDS011;16750;49.002;9.204;2022-08-19T13:26:30;8.50;;;7.20;;
29876;SDS011;16750;49.002;9.204;2022-08-19T13:28:55;8.20;;;7.25;;
29876;SDS011;16750;49.002;9.204;2022-08-19T13:31:40;9.35;;;6.82;;
29876;SDS011;16750;49.002;9.204;2022-08-19T13:34:26;7.57;;;6.30;;
29876;SDS011;16750;49.002;9.204;2022-08-19T13:36:54;9.32;;;6.30;;
29876;SDS011;16750;49.002;9.204;2022-08-19T13:39:20;8.10;;;6.60;;
29876;SDS011;16750;49.002;9.204;2022-08-19T13:41:47;8.23;;;6.63;;
29876;SDS011;16750;49.002;9.204;2022-08-19T13:44:15;11.57;;;7.30;;
29876;SDS011;16750;49.002;9.204;2022-08-19T13:46:43;10.80;;;7.20;;
29876;SDS011;16750;49.002;9.204;2022-08-19T13:49:13;10.10;;;7.03;;
29876;SDS011;16750;49.002;9.204;2022-08-19T13:51:40;9.50;;;6.82;;
29876;SDS011;16750;49.002;9.204;2022-08-19T13:54:07;8.95;;;6.97;;
29876;SDS011;16750;49.002;9.204;2022-08-19T13:56:33;8.88;;;6.53;;
29876;SDS011;16750;49.002;9.204;2022-08-19T13:59:00;7.63;;;6.55;;
29876;SDS011;16750;49.002;9.204;2022-08-19T14:01:25;9.95;;;6.95;;
29876;SDS011;16750;49.002;9.204;2022-08-19T14:03:51;9.68;;;7.00;;
29876;SDS011;16750;49.002;9.204;2022-08-19T14:06:17;11.57;;;7.30;;
29876;SDS011;16750;49.002;9.204;2022-08-19T14:08:44;9.90;;;7.07;;
29876;SDS011;16750;49.002;9.204;2022-08-19T14:11:10;9.18;;;6.82;;
29876;SDS011;16750;49.002;9.204;2022-08-19T14:13:36;8.18;;;6.45;;
29876;SDS011;16750;49.002;9.204;2022-08-19T14:16:05;8.95;;;7.35;;
29876;SDS011;16750;49.002;9.204;2022-08-19T14:18:34;8.55;;;6.72;;
29876;SDS011;16750;49.002;9.204;2022-08-19T14:21:00;9.35;;;6.93;;
29876;SDS011;16750;49.002;9.204;2022-08-19T14:23:26;10.57;;;7.18;;
29876;SDS011;16750;49.002;9.204;2022-08-19T14:25:51;10.10;;;6.72;;
29876;SDS011;16750;49.002;9.204;2022-08-19T14:28:16;11.52;;;6.85;;
29876;SDS011;16750;49.002;9.204;2022-08-19T14:30:42;7.70;;;6.75;;
29876;SDS011;16750;49.002;9.204;2022-08-19T14:33:09;11.90;;;6.85;;
29876;SDS011;16750;49.002;9.204;2022-08-19T14:35:35;10.43;;;6.93;;
29876;SDS011;16750;49.002;9.204;2022-08-19T14:38:02;9.38;;;6.97;;
29876;SDS011;16750;49.002;9.204;2022-08-19T14:40:30;8.90;;;6.22;;